Aktualne dane pomiarowe

Uwaga, wersja testowa! Automatyczne pobieranie danych za pomocą narzędzi lub skryptów to umożliwiających jest zabronione.

Dane meteo z obszaru Polski uzyskane na podstawie depesz SYNOP pobieranych co godzinę z NWS. Najedź myszką na symbol przedstawiony w tabeli, aby uzyskać informacje co do jego znaczenia. Prosimy pamiętać, że to testowa wersja strony, która jeszcze nie jest ukończona. Stworzono również jest krótki FAQ dotyczący korzystania z tej podstrony Anomalie temperatury w chwili obecnej odniesione są do okresu referencyjnego 1951-2016. Okres ten będzie później zmieniony na 1981-2010. Kliknij ikonę aby pobrać plik CSV. Kliknij ikonę aby wygenerować mapę synoptyczną dla danego terminu.

Wybierz Datę:    

        

Łęczyca (12452)

Dane terminowe dla wybranej stacji. Kliknij datę, aby otrzymać dane z tego terminu dla wszystkich stacji.

TemperaturaZachmurzenieWiatrCiśnienieOpadyPogoda
 Data t td wb tx tn tg rh  Nt Nl Cl Cm Ch ws wd g1 g2 wx mslp ppp ch 24h 12h t ww ww w1 w2  
2019-08-08 23:00:00 16.4 14.7 15.2--- 9010.0wxwxwx1----1012.5 997.8 1.6---wx-w1w2--
2019-08-08 22:00:00 19.4 14.7 16.2--- 748.0wxwxwxwx7wx---1012.9 998.2 2.0---wx---
2019-08-08 21:00:00 18.7 13.1 15.1--- 7010.0wx-wx3wx---1010.9 996.3 0.2---------
2019-08-08 20:00:00 19.0 14.1 15.7--- 7310.0wxwxwxwx2wx---1010.9 996.3 0.4---------
2019-08-08 19:00:00 20.4 13.7 16.1--- 6510.0wxwxwx1----1010.8 996.2 0.2---------
2019-08-08 18:00:00 22.9 13.1 16.8--- 5410.0wxwxwxwx2wx---1010.7 996.1 -0.1---------
2019-08-08 17:00:00 24.3 12.6 17.1--- 4810.0wxwxwxwx3wx---1010.5 995.9 -0.3---------
2019-08-08 16:00:00 25.0 12.3 17.2--- 4510.0wxwxwxwx4wx---1010.6 996.0 -0.1---------
2019-08-08 15:00:00 24.7 13.3 17.6--- 4910.0wxwxwxwx6wx---1010.8 996.2 -0.3---------
2019-08-08 14:00:00 24.4 11.4 16.6--- 4410.0wxwxwxwx6wx---1010.7 996.1 -0.2---------
2019-08-08 13:00:00 24.9 11.8 17.0--- 4410.0wxwxwx6wx---1010.7 996.1 0.1---------
2019-08-08 12:00:00 23.7 12.4 16.8--- 4910.0wxwxwx6wx---1011.0 996.4 0.8---------
2019-08-08 11:00:00 22.3 12.9 16.4--- 5510.0wxwxwx5wx---1010.9 996.3 1.1---------
2019-08-08 10:00:00 22.7 14.0 17.2--- 5810.0wxwxwx6wx---1010.6 996.0 1.6---------
2019-08-08 09:00:00 22.2 15.1 17.6--- 6410.0wxwxwx6wx---1010.2 995.6 1.9---------
2019-08-08 08:00:00 21.0 15.3 17.2--- 7010.0wxwxwx6wx---1009.8 995.2 2.3---------
2019-08-08 07:00:00 20.4 16.6 17.8--- 7910.0wxwxwx6wx---1009.1 994.5 2.4---------
2019-08-08 06:00:00 18.9 16.7 17.3--- 8710.0wxwxwx6wx---1008.4 993.7 1.8---------
2019-08-08 05:00:00 18.2 17.2 17.5--- 9410.0wx-wx5wx---1007.5 992.9 1.2---------
2019-08-08 04:00:00 18.4 17.6 17.8--- 9510.0wxwxwx4wx---1006.7 992.1 0.4---------
2019-08-08 03:00:00 17.6 17.0 17.2--- 9610.0wxwxwx4wx---1006.5 991.9 0.5---------
2019-08-08 02:00:00 17.6 17.0 17.2--- 9610.0wxwxwx4wx---1006.3 991.7 0.1---wx-w1w2--
2019-08-08 01:00:00 17.9 17.1 17.3--- 9510.0wxwxwx4wx---1006.7 991.6 0.1---wx-w1w2--
2019-08-08 00:00:00 18.6 18.0 18.2--- 9610.0wxwxwx3wx---1006.5 991.4 0.2---wx-w1w2--
2019-08-07 23:00:00 18.7 18.0 18.2--- 9610.0wxwxwxwx2wx---1006.7 991.6 0.3---wx-w1w2--
2019-08-07 22:00:00 18.3 17.5 17.7--- 9510.0wxwxwxwx2wx---1006.5 991.4 0.9---wx---
2019-08-07 21:00:00 18.5 17.5 17.8--- 9410.0wxwxwxwx2wx---1006.3 991.2 0.7---wx-w1w2--
2019-08-07 20:00:00 18.5 17.5 17.8--- 948.0wxwxwxwx2wx---1006.4 991.3 -0.3---wx-w1--
2019-08-07 19:00:00 23.6 16.2 18.7--- 6310.0wx-wx2wx---1005.5 990.7 -0.8---------
2019-08-07 18:00:00 23.9 16.2 18.8--- 6210.0wxwxwxwx2wx---1005.3 990.5 -1.6---------
2019-08-07 17:00:00 25.2 16.4 19.4--- 5810.0wxwxwxwx2wx---1006.4 991.6 -1.1---------
2019-08-07 16:00:00 25.9 15.9 19.4--- 5410.0wxwxwxwx2wx---1006.2 991.5 -1.5---------
2019-08-07 15:00:00 27.0 15.4 19.6--- 4910.0wxwxwxwx4wx---1006.9 992.3 -1.3---------
2019-08-07 14:00:00 26.0 16.6 19.8--- 5610.0wxwxwxwx3wx---1007.3 992.7 -1.4---------
2019-08-07 13:00:00 25.7 16.6 19.7--- 5710.0wxwxwxwx2wx---1008.2 993.0 -1.4---------
2019-08-07 12:00:00 24.6 16.1 19.0--- 5910.0wx-wx2wx---1008.8 993.7 -0.7---------
2019-08-07 11:00:00 23.6 15.7 18.4--- 6110.0wx-wx2wx---1009.0 994.1 -0.1---------
2019-08-07 10:00:00 23.6 15.9 18.5--- 6210.0wx-wx2wx---1009.4 994.5 0.5---------
2019-08-07 09:00:00 22.9 16.2 18.4--- 6610.0wx-wxwx2wx---1009.3 994.4 0.6---------
2019-08-07 08:00:00 22.0 17.0 18.6--- 7310.0wx-wxwx2wx---1009.1 994.1 0.4---------
2019-08-07 07:00:00 20.8 16.8 18.0--- 7810.0wx-wxwx2wx---1009.0 994.0 0.1---------
2019-08-07 06:00:00 20.0 17.2 18.0--- 8410.0wx-wxwx1----1008.9 993.8 0.3---------
2019-08-07 05:00:00 18.4 16.6 17.1--- 8910.0wxwxwxwx1----1008.2 993.9 0.3---------
2019-08-07 04:00:00 17.2 16.1 16.4--- 9310.0wxwxwxwx1----1008.5 993.8 0.5---------
2019-08-07 03:00:00 18.1 16.4 16.9--- 9010.0wxwxwxwx1----1008.1 993.5 -0.3---------
2019-08-07 02:00:00 18.8 16.5 17.2--- 8710.0wxwxwxwx2wx---1008.3 993.7 -1.0---------
2019-08-07 01:00:00 19.0 16.6 17.3--- 8610.0wxwxwxwx2wx---1009.6 993.8 -0.9---------
2019-08-07 00:00:00 19.1 16.3 17.1--- 8410.0wxwxwxwx2wx---1009.6 993.8 0.3---wx---
2.2 ms

 

Print Friendly, PDF & Email